Time;durP1;ratioP1;P1;durP2;ratioP2;P2;SDS_P1;SDS_P2;PMS_P1;PMS_P2;Temp;Humidity;BMP_temperature;BMP_pressure;BME280_temperature;BME280_humidity;BME280_pressure;Samples;Min_cycle;Max_cycle;Signal;HPM_P1;HPM_P2
2023/04/04 00:01:17;;;;;;;;;;;19.20;37.40;;;;;;5117232;28;19973;-63
2023/04/04 00:03:44;;;;;;;;;;;19.30;37.50;;;;;;5097975;28;19920;-61
2023/04/04 00:06:10;;;;;;;;;;;19.20;37.40;;;;;;5101096;28;19920;-62
2023/04/04 00:08:37;;;;;;;;;;;19.30;37.60;;;;;;5100262;28;19919;-63
2023/04/04 00:11:07;;;;;;;;;;;19.30;37.60;;;;;;5096676;28;19923;-60
2023/04/04 00:13:35;;;;;;;;;;;19.20;37.50;;;;;;5099925;28;20262;-61
2023/04/04 00:16:03;;;;;;;;;;;19.30;37.60;;;;;;5100855;28;19942;-60
2023/04/04 00:18:30;;;;;;;;;;;19.20;37.50;;;;;;5096663;28;19924;-63
2023/04/04 00:20:57;;;;;;;;;;;19.30;37.70;;;;;;5113115;28;19920;-61
2023/04/04 00:23:23;;;;;;;;;;;19.30;37.70;;;;;;5097480;28;19939;-62
2023/04/04 00:25:51;;;;;;;;;;;19.30;37.70;;;;;;5096937;28;19919;-62
2023/04/04 00:28:19;;;;;;;;;;;19.30;37.70;;;;;;5117466;28;19920;-63
2023/04/04 00:30:46;;;;;;;;;;;19.30;37.70;;;;;;5100105;28;19919;-62
2023/04/04 00:33:13;;;;;;;;;;;19.30;37.70;;;;;;5100174;28;19969;-63
2023/04/04 00:35:40;;;;;;;;;;;19.30;37.70;;;;;;5099181;28;20270;-63
2023/04/04 00:38:07;;;;;;;;;;;19.30;37.70;;;;;;5098780;28;19919;-63
2023/04/04 00:40:36;;;;;;;;;;;19.30;37.70;;;;;;5100119;28;20007;-62
2023/04/04 00:43:03;;;;;;;;;;;19.30;37.70;;;;;;5100876;28;19923;-63
2023/04/04 00:45:31;;;;;;;;;;;19.30;37.70;;;;;;5099809;28;19920;-64
2023/04/04 00:47:58;;;;;;;;;;;19.30;37.80;;;;;;5118083;28;20382;-63
2023/04/04 00:50:27;;;;;;;;;;;19.30;37.80;;;;;;5100431;28;19926;-62
2023/04/04 00:52:54;;;;;;;;;;;19.30;37.80;;;;;;5099394;28;19920;-63
2023/04/04 00:55:21;;;;;;;;;;;19.30;37.80;;;;;;5097626;28;19987;-62
2023/04/04 00:57:48;;;;;;;;;;;19.30;37.80;;;;;;5097980;28;19919;-62
2023/04/04 01:00:15;;;;;;;;;;;19.30;37.80;;;;;;5095950;28;20381;-62
2023/04/04 01:02:43;;;;;;;;;;;19.30;37.80;;;;;;5113767;28;19920;-61
2023/04/04 01:05:11;;;;;;;;;;;19.30;37.80;;;;;;5095474;28;19924;-62
2023/04/04 01:07:38;;;;;;;;;;;19.30;37.80;;;;;;5095627;28;19920;-62
2023/04/04 01:10:05;;;;;;;;;;;19.30;37.90;;;;;;5096071;28;19965;-61
2023/04/04 01:12:32;;;;;;;;;;;19.30;37.90;;;;;;5094061;28;20044;-60
2023/04/04 01:14:58;;;;;;;;;;;19.30;37.90;;;;;;5097253;28;19968;-61
2023/04/04 01:17:26;;;;;;;;;;;19.30;37.90;;;;;;5116111;28;20295;-63
2023/04/04 01:19:56;;;;;;;;;;;19.30;37.90;;;;;;5095325;27;19920;-61
2023/04/04 01:22:23;;;;;;;;;;;19.30;37.90;;;;;;5120205;27;19924;-62
2023/04/04 01:24:50;;;;;;;;;;;19.30;37.90;;;;;;5138033;27;19925;-62
2023/04/04 01:27:18;;;;;;;;;;;19.30;37.90;;;;;;5119379;27;19919;-62
2023/04/04 01:29:45;;;;;;;;;;;19.30;38.00;;;;;;5109415;28;19920;-62
2023/04/04 01:32:13;;;;;;;;;;;19.30;38.00;;;;;;5097135;28;19920;-62
2023/04/04 01:34:41;;;;;;;;;;;19.30;37.90;;;;;;5095211;28;19919;-62
2023/04/04 01:37:10;;;;;;;;;;;19.30;38.00;;;;;;5098841;28;20331;-62
2023/04/04 01:39:39;;;;;;;;;;;19.30;38.60;;;;;;5115743;28;19920;-62
2023/04/04 01:42:06;;;;;;;;;;;19.30;38.00;;;;;;5096671;28;19920;-63
2023/04/04 01:44:34;;;;;;;;;;;19.30;38.00;;;;;;5113777;27;19926;-62
2023/04/04 01:47:02;;;;;;;;;;;19.30;38.00;;;;;;5112362;28;19920;-62
2023/04/04 01:49:28;;;;;;;;;;;19.30;38.00;;;;;;5096675;28;20006;-63
2023/04/04 01:51:55;;;;;;;;;;;19.30;38.00;;;;;;5115221;28;20259;-63
2023/04/04 01:54:22;;;;;;;;;;;19.30;38.00;;;;;;5113821;28;19920;-62
2023/04/04 01:56:50;;;;;;;;;;;19.30;38.00;;;;;;5098743;28;19968;-62
2023/04/04 01:59:17;;;;;;;;;;;19.30;38.00;;;;;;5096148;28;19928;-63
2023/04/04 02:01:46;;;;;;;;;;;19.30;38.00;;;;;;5115620;28;19976;-62
2023/04/04 02:04:13;;;;;;;;;;;19.30;38.00;;;;;;5110658;28;19919;-62
2023/04/04 02:06:41;;;;;;;;;;;19.30;38.00;;;;;;5095234;28;19919;-61
2023/04/04 02:09:07;;;;;;;;;;;19.30;38.00;;;;;;5112564;28;19924;-62
2023/04/04 02:11:35;;;;;;;;;;;19.30;38.00;;;;;;5113096;28;19924;-62
2023/04/04 02:14:02;;;;;;;;;;;19.30;38.00;;;;;;5095430;28;20354;-62
2023/04/04 02:16:29;;;;;;;;;;;19.30;38.00;;;;;;5112467;28;19926;-61
2023/04/04 02:18:57;;;;;;;;;;;19.30;38.00;;;;;;5095938;28;19924;-62
2023/04/04 02:21:26;;;;;;;;;;;19.30;38.00;;;;;;5112461;28;19973;-63
2023/04/04 02:23:52;;;;;;;;;;;19.30;38.00;;;;;;5096011;28;20373;-62
2023/04/04 02:26:20;;;;;;;;;;;19.30;38.00;;;;;;5097427;28;19931;-62
2023/04/04 02:28:47;;;;;;;;;;;19.30;38.00;;;;;;5097611;28;19926;-62
2023/04/04 02:31:13;;;;;;;;;;;19.30;38.00;;;;;;5116032;28;20298;-62
2023/04/04 02:33:40;;;;;;;;;;;19.30;38.00;;;;;;5112915;28;19924;-63
2023/04/04 02:36:09;;;;;;;;;;;19.30;37.90;;;;;;5095838;28;20314;-63
2023/04/04 02:38:35;;;;;;;;;;;19.30;37.90;;;;;;5097550;28;19928;-62
2023/04/04 02:41:02;;;;;;;;;;;19.30;37.90;;;;;;5094158;28;19920;-62
2023/04/04 02:43:29;;;;;;;;;;;19.30;37.90;;;;;;5097449;28;20312;-62
2023/04/04 02:45:55;;;;;;;;;;;19.30;37.90;;;;;;5095395;28;19930;-63
2023/04/04 02:48:23;;;;;;;;;;;19.30;37.90;;;;;;5111660;28;19942;-62
2023/04/04 02:50:49;;;;;;;;;;;19.30;37.90;;;;;;5131727;27;19927;-62
2023/04/04 02:53:18;;;;;;;;;;;19.30;37.90;;;;;;5124208;27;19969;-62
2023/04/04 02:55:45;;;;;;;;;;;19.30;37.90;;;;;;5114040;28;19923;-62
2023/04/04 02:58:11;;;;;;;;;;;19.30;37.90;;;;;;5115636;28;19993;-61
2023/04/04 03:00:38;;;;;;;;;;;19.30;37.80;;;;;;5113512;28;19920;-62
2023/04/04 03:03:05;;;;;;;;;;;19.30;37.80;;;;;;5114088;28;19953;-62
2023/04/04 03:05:32;;;;;;;;;;;19.30;37.80;;;;;;5097792;28;19920;-63
2023/04/04 03:07:58;;;;;;;;;;;19.30;37.80;;;;;;5096938;28;19920;-61
2023/04/04 03:10:28;;;;;;;;;;;19.30;37.80;;;;;;5115160;28;19972;-62
2023/04/04 03:12:55;;;;;;;;;;;19.30;37.80;;;;;;5112514;28;19920;-62
2023/04/04 03:15:22;;;;;;;;;;;19.30;37.90;;;;;;5102195;27;19919;-62
2023/04/04 03:17:48;;;;;;;;;;;19.30;37.80;;;;;;5112091;28;19919;-62
2023/04/04 03:20:15;;;;;;;;;;;19.30;37.80;;;;;;5095391;28;19965;-61
2023/04/04 03:22:42;;;;;;;;;;;19.30;37.80;;;;;;5095045;28;19924;-62
2023/04/04 03:25:10;;;;;;;;;;;19.30;37.80;;;;;;5094053;28;19976;-62
2023/04/04 03:27:38;;;;;;;;;;;19.30;37.80;;;;;;5093717;28;19920;-62
2023/04/04 03:30:06;;;;;;;;;;;19.30;37.80;;;;;;5096671;28;19927;-62
2023/04/04 03:32:33;;;;;;;;;;;19.30;37.80;;;;;;5092354;28;19923;-63
2023/04/04 03:34:59;;;;;;;;;;;19.30;37.80;;;;;;5110357;28;19919;-63
2023/04/04 03:37:26;;;;;;;;;;;19.30;37.80;;;;;;5111001;28;20366;-62
2023/04/04 03:39:53;;;;;;;;;;;19.30;37.80;;;;;;5110852;28;19920;-62
2023/04/04 03:42:20;;;;;;;;;;;19.30;37.80;;;;;;5119333;27;19965;-63
2023/04/04 03:44:48;;;;;;;;;;;19.30;37.80;;;;;;5094085;28;19957;-62
2023/04/04 03:47:15;;;;;;;;;;;19.30;37.80;;;;;;5095255;28;19962;-62
2023/04/04 03:49:42;;;;;;;;;;;19.30;37.70;;;;;;5104932;27;19972;-62
2023/04/04 03:52:08;;;;;;;;;;;19.30;37.80;;;;;;5116415;28;19923;-61
2023/04/04 03:54:35;;;;;;;;;;;19.30;37.80;;;;;;5114663;28;19923;-61
2023/04/04 03:57:02;;;;;;;;;;;19.30;37.70;;;;;;5104661;28;19920;-62
2023/04/04 03:59:29;;;;;;;;;;;19.30;37.70;;;;;;5114485;28;19927;-62
2023/04/04 04:01:57;;;;;;;;;;;19.30;37.70;;;;;;5096068;28;19928;-62
2023/04/04 04:04:24;;;;;;;;;;;19.30;37.70;;;;;;5114459;28;19924;-62
2023/04/04 04:06:51;;;;;;;;;;;19.30;37.70;;;;;;5096370;28;19945;-62
2023/04/04 04:09:17;;;;;;;;;;;19.30;37.70;;;;;;5096963;28;20350;-62
2023/04/04 04:11:44;;;;;;;;;;;19.30;37.70;;;;;;5096614;28;19920;-61
2023/04/04 04:14:11;;;;;;;;;;;19.30;37.70;;;;;;5094853;28;19964;-62
2023/04/04 04:16:40;;;;;;;;;;;19.30;37.70;;;;;;5096098;28;20014;-61
2023/04/04 04:19:08;;;;;;;;;;;19.30;37.70;;;;;;5095653;28;19920;-62
2023/04/04 04:21:34;;;;;;;;;;;19.30;37.70;;;;;;5095711;28;19923;-62
2023/04/04 04:24:01;;;;;;;;;;;19.30;37.70;;;;;;5114180;28;19920;-61
2023/04/04 04:26:28;;;;;;;;;;;19.30;37.70;;;;;;5114209;28;19920;-61
2023/04/04 04:28:55;;;;;;;;;;;19.30;37.70;;;;;;5113721;28;19923;-61
2023/04/04 04:31:22;;;;;;;;;;;19.30;37.70;;;;;;5094227;28;20023;-61
2023/04/04 04:33:48;;;;;;;;;;;19.30;37.70;;;;;;5096086;28;19927;-61
2023/04/04 04:36:17;;;;;;;;;;;19.30;37.70;;;;;;5096350;28;20373;-62
2023/04/04 04:38:43;;;;;;;;;;;19.30;37.70;;;;;;5092937;28;19920;-61
2023/04/04 04:41:10;;;;;;;;;;;19.30;37.60;;;;;;5113408;28;19934;-62
2023/04/04 04:43:37;;;;;;;;;;;19.30;37.70;;;;;;5113719;28;19920;-61
2023/04/04 04:46:04;;;;;;;;;;;19.30;37.70;;;;;;5095529;28;19920;-61
2023/04/04 04:48:31;;;;;;;;;;;19.30;37.70;;;;;;5114648;28;20238;-61
2023/04/04 04:50:58;;;;;;;;;;;19.30;37.60;;;;;;5097618;28;19920;-62
2023/04/04 04:53:26;;;;;;;;;;;19.30;37.60;;;;;;5116417;28;19919;-61
2023/04/04 04:55:53;;;;;;;;;;;19.30;37.70;;;;;;5099976;28;19919;-62
2023/04/04 04:58:22;;;;;;;;;;;19.30;37.70;;;;;;5097834;28;19919;-61
2023/04/04 05:00:49;;;;;;;;;;;19.30;37.70;;;;;;5099797;28;19920;-61
2023/04/04 05:03:16;;;;;;;;;;;19.30;37.70;;;;;;5097704;28;19930;-62
2023/04/04 05:05:43;;;;;;;;;;;19.30;37.70;;;;;;5104492;27;19920;-61
2023/04/04 05:08:10;;;;;;;;;;;19.30;37.70;;;;;;5105284;28;19924;-62
2023/04/04 05:10:38;;;;;;;;;;;19.30;37.70;;;;;;5104913;28;19919;-62
2023/04/04 05:13:04;;;;;;;;;;;19.30;37.70;;;;;;5116911;28;19927;-61
2023/04/04 05:15:31;;;;;;;;;;;19.30;37.70;;;;;;5117578;28;19927;-62
2023/04/04 05:17:58;;;;;;;;;;;19.30;37.70;;;;;;5098920;28;19980;-62
2023/04/04 05:20:26;;;;;;;;;;;19.30;37.70;;;;;;5121572;27;19923;-62
2023/04/04 05:22:52;;;;;;;;;;;19.30;37.60;;;;;;5098920;28;19920;-62
2023/04/04 05:25:19;;;;;;;;;;;19.30;37.70;;;;;;5114126;28;19926;-62
2023/04/04 05:27:48;;;;;;;;;;;19.30;37.70;;;;;;5119413;27;19928;-62
2023/04/04 05:30:15;;;;;;;;;;;19.30;37.60;;;;;;5096284;28;20423;-62
2023/04/04 05:32:44;;;;;;;;;;;19.30;37.70;;;;;;5115761;28;19962;-62
2023/04/04 05:35:11;;;;;;;;;;;19.30;37.70;;;;;;5099182;28;19965;-62
2023/04/04 05:37:38;;;;;;;;;;;19.30;37.80;;;;;;5097205;27;19920;-61
2023/04/04 05:40:06;;;;;;;;;;;19.30;37.70;;;;;;5119915;27;20265;-62
2023/04/04 05:42:33;;;;;;;;;;;19.30;37.80;;;;;;5106797;27;19924;-62
2023/04/04 05:45:01;;;;;;;;;;;19.30;37.80;;;;;;5098232;28;19920;-62
2023/04/04 05:47:28;;;;;;;;;;;19.30;37.80;;;;;;5095038;28;19920;-62
2023/04/04 05:49:55;;;;;;;;;;;19.30;37.80;;;;;;5097589;28;19920;-61
2023/04/04 05:52:21;;;;;;;;;;;19.30;37.90;;;;;;5099389;28;20014;-62
2023/04/04 05:54:48;;;;;;;;;;;19.30;37.90;;;;;;5099200;28;20269;-63
2023/04/04 05:57:15;;;;;;;;;;;19.30;37.90;;;;;;5118106;28;19923;-63
2023/04/04 05:59:42;;;;;;;;;;;19.30;37.90;;;;;;5115303;28;19920;-64
2023/04/04 06:02:12;;;;;;;;;;;19.40;38.00;;;;;;5116746;28;20274;-62
2023/04/04 06:04:40;;;;;;;;;;;19.30;37.90;;;;;;5078310;28;19973;-62
2023/04/04 06:07:06;;;;;;;;;;;19.40;37.90;;;;;;5105533;27;20349;-63
2023/04/04 06:09:35;;;;;;;;;;;19.40;37.90;;;;;;5099398;27;19949;-62
2023/04/04 06:12:03;;;;;;;;;;;19.30;37.80;;;;;;5132245;27;19923;-62
2023/04/04 06:14:30;;;;;;;;;;;19.30;37.80;;;;;;5097340;28;19959;-63
2023/04/04 06:16:57;;;;;;;;;;;19.30;37.80;;;;;;5099710;27;19930;-63
2023/04/04 06:19:25;;;;;;;;;;;19.30;37.70;;;;;;5102062;28;20384;-63
2023/04/04 06:21:52;;;;;;;;;;;19.40;37.90;;;;;;5095991;28;19973;-63
2023/04/04 06:24:19;;;;;;;;;;;19.40;37.90;;;;;;5095987;28;19920;-62
2023/04/04 06:26:50;;;;;;;;;;;19.30;37.80;;;;;;5121493;27;19919;-62
2023/04/04 06:29:17;;;;;;;;;;;19.30;37.80;;;;;;5093413;27;19923;-61
2023/04/04 06:31:44;;;;;;;;;;;19.40;37.90;;;;;;5117267;27;19955;-63
2023/04/04 06:34:12;;;;;;;;;;;19.30;37.70;;;;;;5113150;28;20046;-61
2023/04/04 06:36:41;;;;;;;;;;;19.30;37.70;;;;;;5117138;27;19925;-61
2023/04/04 06:39:08;;;;;;;;;;;19.30;37.70;;;;;;5118709;27;19919;-62
2023/04/04 06:41:34;;;;;;;;;;;19.40;37.80;;;;;;5100311;27;19947;-62
2023/04/04 06:44:01;;;;;;;;;;;19.30;37.70;;;;;;5117995;27;19923;-63
2023/04/04 06:46:30;;;;;;;;;;;19.30;37.60;;;;;;5102947;27;19919;-62
2023/04/04 06:48:57;;;;;;;;;;;19.40;37.70;;;;;;5097287;28;20015;-61
2023/04/04 06:51:24;;;;;;;;;;;19.40;37.70;;;;;;5098665;28;20299;-63
2023/04/04 06:53:52;;;;;;;;;;;19.40;37.70;;;;;;5095476;28;19943;-63
2023/04/04 06:56:19;;;;;;;;;;;19.40;37.70;;;;;;5095980;28;19920;-63
2023/04/04 06:58:46;;;;;;;;;;;19.40;37.60;;;;;;5097546;28;19920;-64
2023/04/04 07:01:12;;;;;;;;;;;19.30;37.50;;;;;;5113196;27;19963;-63
2023/04/04 07:03:39;;;;;;;;;;;19.40;37.50;;;;;;5119923;27;19920;-62
2023/04/04 07:06:06;;;;;;;;;;;19.40;37.50;;;;;;5076405;28;19950;-63
2023/04/04 07:08:33;;;;;;;;;;;19.30;37.30;;;;;;5088024;27;19919;-63
2023/04/04 07:11:01;;;;;;;;;;;19.40;37.40;;;;;;5103246;27;19919;-64
2023/04/04 07:13:28;;;;;;;;;;;19.40;37.40;;;;;;5101832;27;19923;-62
2023/04/04 07:15:55;;;;;;;;;;;19.40;37.40;;;;;;5106851;27;19919;-62
2023/04/04 07:18:21;;;;;;;;;;;19.40;37.30;;;;;;5098073;28;19919;-62
2023/04/04 07:20:48;;;;;;;;;;;19.40;37.30;;;;;;5102364;28;19923;-62
2023/04/04 07:23:15;;;;;;;;;;;19.40;37.30;;;;;;5102987;28;19920;-63
2023/04/04 07:25:42;;;;;;;;;;;19.40;37.20;;;;;;5103319;28;19919;-62
2023/04/04 07:28:10;;;;;;;;;;;19.40;37.10;;;;;;5112334;27;19927;-62
2023/04/04 07:30:37;;;;;;;;;;;19.40;37.10;;;;;;5120843;27;19919;-63
2023/04/04 07:33:04;;;;;;;;;;;19.40;37.10;;;;;;5102296;28;19923;-63
2023/04/04 07:35:31;;;;;;;;;;;19.40;37.10;;;;;;5104069;27;19958;-60
2023/04/04 07:37:58;;;;;;;;;;;19.40;37.10;;;;;;5106325;27;19919;-63
2023/04/04 07:40:25;;;;;;;;;;;19.40;37.00;;;;;;5135666;27;19919;-63
2023/04/04 07:42:54;;;;;;;;;;;19.40;37.00;;;;;;5115175;27;20127;-62
2023/04/04 07:45:22;;;;;;;;;;;19.40;37.00;;;;;;5126228;27;19981;-62
2023/04/04 07:47:49;;;;;;;;;;;19.40;37.00;;;;;;5097639;28;19928;-63
2023/04/04 07:50:15;;;;;;;;;;;19.40;37.00;;;;;;5099757;28;19920;-63
2023/04/04 07:52:42;;;;;;;;;;;19.40;37.00;;;;;;5104917;27;19980;-63
2023/04/04 07:55:10;;;;;;;;;;;19.40;37.00;;;;;;5100155;27;19949;-64
2023/04/04 07:57:37;;;;;;;;;;;19.40;37.00;;;;;;5114978;27;20379;-63
2023/04/04 08:00:05;;;;;;;;;;;19.50;37.80;;;;;;5130649;27;19919;-63
2023/04/04 08:02:34;;;;;;;;;;;19.50;37.10;;;;;;5113788;28;19981;-63
2023/04/04 08:05:01;;;;;;;;;;;19.50;37.30;;;;;;5095415;28;19920;-63
2023/04/04 08:07:27;;;;;;;;;;;19.50;37.00;;;;;;5106826;28;19949;-62
2023/04/04 08:09:55;;;;;;;;;;;19.40;36.90;;;;;;5111049;28;19985;-62
2023/04/04 08:12:21;;;;;;;;;;;19.50;37.10;;;;;;5110627;28;19927;-63
2023/04/04 08:14:48;;;;;;;;;;;19.50;37.00;;;;;;5093737;28;19926;-62
2023/04/04 08:17:17;;;;;;;;;;;19.40;36.90;;;;;;5118605;28;19919;-62
2023/04/04 08:19:46;;;;;;;;;;;19.40;36.90;;;;;;5104054;28;20002;-62
2023/04/04 08:22:13;;;;;;;;;;;19.50;36.80;;;;;;5122694;27;19919;-61
2023/04/04 08:24:40;;;;;;;;;;;19.40;36.70;;;;;;5117988;27;19942;-62
2023/04/04 08:27:07;;;;;;;;;;;19.40;37.20;;;;;;5114002;28;19919;-63
2023/04/04 08:29:34;;;;;;;;;;;19.40;36.60;;;;;;5099206;28;19927;-63
2023/04/04 08:32:03;;;;;;;;;;;19.40;36.60;;;;;;5113532;27;20006;-62
2023/04/04 08:34:30;;;;;;;;;;;19.50;36.60;;;;;;5102319;27;20009;-59
2023/04/04 08:36:58;;;;;;;;;;;19.40;36.50;;;;;;5118994;27;19958;-62
2023/04/04 08:39:26;;;;;;;;;;;19.50;36.50;;;;;;5114776;28;20357;-64
2023/04/04 08:41:54;;;;;;;;;;;19.40;36.40;;;;;;5135970;27;19951;-64
2023/04/04 08:44:21;;;;;;;;;;;19.40;36.40;;;;;;5135980;27;19972;-61
2023/04/04 08:46:49;;;;;;;;;;;19.50;36.40;;;;;;5113211;28;19942;-62
2023/04/04 08:49:16;;;;;;;;;;;19.40;36.30;;;;;;5114841;27;19919;-62
2023/04/04 08:51:43;;;;;;;;;;;19.40;36.30;;;;;;5134448;27;19941;-62
2023/04/04 08:54:11;;;;;;;;;;;19.50;36.30;;;;;;5114520;28;19924;-63
2023/04/04 08:56:38;;;;;;;;;;;19.50;36.10;;;;;;5116028;28;19964;-63
2023/04/04 08:59:04;;;;;;;;;;;19.40;36.00;;;;;;5094451;28;19928;-59
2023/04/04 09:01:32;;;;;;;;;;;19.50;36.00;;;;;;5084517;28;20220;-61
2023/04/04 09:03:58;;;;;;;;;;;19.40;35.90;;;;;;5110301;28;19926;-61
2023/04/04 09:06:26;;;;;;;;;;;19.50;36.60;;;;;;5112315;28;19927;-62
2023/04/04 09:08:53;;;;;;;;;;;19.50;36.00;;;;;;5112340;28;19934;-61
2023/04/04 09:11:22;;;;;;;;;;;19.40;35.80;;;;;;5106179;28;19934;-61
2023/04/04 09:13:49;;;;;;;;;;;19.50;36.30;;;;;;5111425;27;19920;-62
2023/04/04 09:16:16;;;;;;;;;;;19.50;35.50;;;;;;5134514;27;19919;-60
2023/04/04 09:18:42;;;;;;;;;;;19.50;35.50;;;;;;5134175;27;19923;-61
2023/04/04 09:21:10;;;;;;;;;;;19.40;35.30;;;;;;5132695;27;19927;-60
2023/04/04 09:23:36;;;;;;;;;;;19.40;35.30;;;;;;5115406;27;19926;-62
2023/04/04 09:26:03;;;;;;;;;;;19.50;35.90;;;;;;5133071;27;19919;-61
2023/04/04 09:28:31;;;;;;;;;;;19.50;35.10;;;;;;5112346;27;20357;-62
2023/04/04 09:31:00;;;;;;;;;;;19.40;34.80;;;;;;5115701;27;19926;-63
2023/04/04 09:33:27;;;;;;;;;;;19.40;34.70;;;;;;5107535;28;19985;-60
2023/04/04 09:35:54;;;;;;;;;;;19.40;34.70;;;;;;5111327;27;20304;-60
2023/04/04 09:38:21;;;;;;;;;;;19.40;34.60;;;;;;5102133;28;19926;-61
2023/04/04 09:40:48;;;;;;;;;;;19.40;34.00;;;;;;5111941;28;19923;-61
2023/04/04 09:43:15;;;;;;;;;;;19.40;32.90;;;;;;5103522;28;19920;-62
2023/04/04 09:45:44;;;;;;;;;;;19.40;32.50;;;;;;5094525;28;19920;-61
2023/04/04 09:48:11;;;;;;;;;;;19.30;30.10;;;;;;5113271;28;19924;-59
2023/04/04 09:50:38;;;;;;;;;;;19.20;29.80;;;;;;5112321;28;19946;-60
2023/04/04 09:53:04;;;;;;;;;;;19.20;30.00;;;;;;5093497;28;19934;-60
2023/04/04 09:55:32;;;;;;;;;;;19.10;29.90;;;;;;5095692;28;20421;-60
2023/04/04 09:58:01;;;;;;;;;;;19.10;29.90;;;;;;5097104;28;19985;-59
2023/04/04 10:00:28;;;;;;;;;;;19.00;29.40;;;;;;5093414;28;19928;-60
2023/04/04 10:02:57;;;;;;;;;;;19.00;29.50;;;;;;5095481;28;19920;-60
2023/04/04 10:05:26;;;;;;;;;;;19.00;29.20;;;;;;5096373;28;20338;-59
2023/04/04 10:07:53;;;;;;;;;;;18.90;29.20;;;;;;5112708;27;19981;-60
2023/04/04 10:10:19;;;;;;;;;;;18.90;28.60;;;;;;5111859;28;19946;-63
2023/04/04 10:12:47;;;;;;;;;;;18.90;29.10;;;;;;5111636;27;19923;-63
2023/04/04 10:15:15;;;;;;;;;;;18.80;28.90;;;;;;5097272;28;20365;-63
2023/04/04 10:17:42;;;;;;;;;;;18.80;29.10;;;;;;5110722;28;19920;-62
2023/04/04 10:20:10;;;;;;;;;;;18.80;28.80;;;;;;5110834;28;19981;-61
2023/04/04 10:22:37;;;;;;;;;;;18.80;28.80;;;;;;5128013;27;19920;-61
2023/04/04 10:25:04;;;;;;;;;;;18.80;28.90;;;;;;5111432;27;20292;-60
2023/04/04 10:27:31;;;;;;;;;;;18.80;29.10;;;;;;5096454;28;19924;-62
2023/04/04 10:29:58;;;;;;;;;;;18.80;29.30;;;;;;5111085;28;20287;-60
2023/04/04 10:32:28;;;;;;;;;;;18.70;29.30;;;;;;5106283;28;19926;-62
2023/04/04 10:34:56;;;;;;;;;;;18.70;29.40;;;;;;5090779;28;19927;-61
2023/04/04 10:37:27;;;;;;;;;;;18.70;29.10;;;;;;5089845;28;19924;-60
2023/04/04 10:39:54;;;;;;;;;;;18.70;29.10;;;;;;5091101;28;19924;-61
2023/04/04 10:42:22;;;;;;;;;;;18.70;28.70;;;;;;5113942;28;19927;-56
2023/04/04 10:44:49;;;;;;;;;;;18.70;28.50;;;;;;5113918;28;19927;-61
2023/04/04 10:47:17;;;;;;;;;;;18.70;28.40;;;;;;5112481;28;19924;-57
2023/04/04 10:49:44;;;;;;;;;;;18.70;27.70;;;;;;5123081;27;19961;-62
2023/04/04 10:52:11;;;;;;;;;;;18.60;27.40;;;;;;5103332;27;19971;-61
2023/04/04 10:54:39;;;;;;;;;;;18.60;27.60;;;;;;5115342;27;19920;-61
2023/04/04 10:57:06;;;;;;;;;;;18.60;27.70;;;;;;5097536;28;19927;-59
2023/04/04 10:59:32;;;;;;;;;;;18.60;27.80;;;;;;5108140;28;19920;-62
2023/04/04 11:01:59;;;;;;;;;;;18.60;28.10;;;;;;5114092;28;19928;-62
2023/04/04 11:04:33;;;;;;;;;;;18.60;28.40;;;;;;5111882;28;20452;-62
2023/04/04 11:07:13;;;;;;;;;;;18.60;28.70;;;;;;5114301;28;19919;-61
2023/04/04 11:09:52;;;;;;;;;;;18.60;28.90;;;;;;5112497;28;19920;-59
2023/04/04 11:12:23;;;;;;;;;;;18.60;29.00;;;;;;5114271;28;19919;-62
2023/04/04 11:14:56;;;;;;;;;;;18.60;29.10;;;;;;5113565;27;19920;-62
2023/04/04 11:17:57;;;;;;;;;;;18.60;29.10;;;;;;5100673;27;19925;-61
2023/04/04 11:20:25;;;;;;;;;;;18.70;29.20;;;;;;5037857;28;19924;-62
2023/04/04 11:22:51;;;;;;;;;;;18.70;29.10;;;;;;5041340;28;19944;-64
2023/04/04 11:25:36;;;;;;;;;;;18.70;29.60;;;;;;5072285;27;19931;-64
2023/04/04 11:28:07;;;;;;;;;;;18.70;30.00;;;;;;5105591;27;19942;-61
2023/04/04 11:30:43;;;;;;;;;;;18.70;30.20;;;;;;5122987;27;19969;-63
2023/04/04 11:33:11;;;;;;;;;;;18.80;30.60;;;;;;5100939;28;19931;-60
2023/04/04 11:35:38;;;;;;;;;;;18.80;30.80;;;;;;5108561;27;19920;-62
2023/04/04 11:38:06;;;;;;;;;;;18.80;31.00;;;;;;5102227;27;20010;-61
2023/04/04 11:40:38;;;;;;;;;;;18.90;31.30;;;;;;5102285;27;19927;-60
2023/04/04 11:43:09;;;;;;;;;;;18.90;31.40;;;;;;5117616;27;19927;-60
2023/04/04 11:45:36;;;;;;;;;;;18.90;31.50;;;;;;5122023;27;19924;-62
2023/04/04 11:48:03;;;;;;;;;;;19.00;31.70;;;;;;5088149;27;19926;-62
2023/04/04 11:50:34;;;;;;;;;;;19.00;31.80;;;;;;5101910;27;19927;-61
2023/04/04 11:53:01;;;;;;;;;;;19.00;31.90;;;;;;5103306;27;19920;-60
2023/04/04 11:55:28;;;;;;;;;;;19.00;32.00;;;;;;5082446;27;19920;-60
2023/04/04 11:57:58;;;;;;;;;;;19.00;32.10;;;;;;5117364;27;19959;-61
2023/04/04 12:00:29;;;;;;;;;;;19.10;32.20;;;;;;5100839;27;20405;-61
2023/04/04 12:02:56;;;;;;;;;;;19.10;32.30;;;;;;5105922;28;19969;-62
2023/04/04 12:05:22;;;;;;;;;;;19.10;32.40;;;;;;5101091;28;19919;-62
2023/04/04 12:07:50;;;;;;;;;;;19.10;32.40;;;;;;5102178;28;19968;-62
2023/04/04 12:10:17;;;;;;;;;;;19.10;32.50;;;;;;5099962;28;19920;-62
2023/04/04 12:12:45;;;;;;;;;;;19.20;32.70;;;;;;5102770;28;19970;-61
2023/04/04 12:15:14;;;;;;;;;;;19.10;32.60;;;;;;5115853;28;20378;-62
2023/04/04 12:17:42;;;;;;;;;;;19.20;32.80;;;;;;5100697;28;19959;-62
2023/04/04 12:20:10;;;;;;;;;;;19.20;32.90;;;;;;5102658;28;19959;-62
2023/04/04 12:22:36;;;;;;;;;;;19.20;32.90;;;;;;5121023;28;19920;-62
2023/04/04 12:25:04;;;;;;;;;;;19.20;32.90;;;;;;5101124;28;19927;-61
2023/04/04 12:27:31;;;;;;;;;;;19.20;32.90;;;;;;5103731;28;19926;-62
2023/04/04 12:29:59;;;;;;;;;;;19.20;33.00;;;;;;5101418;28;19923;-61
2023/04/04 12:32:27;;;;;;;;;;;19.20;33.00;;;;;;5097235;28;19924;-62
2023/04/04 12:34:56;;;;;;;;;;;19.20;33.10;;;;;;5101502;28;20025;-62
2023/04/04 12:37:25;;;;;;;;;;;19.20;33.10;;;;;;5101822;28;20439;-62
2023/04/04 12:39:52;;;;;;;;;;;19.30;33.20;;;;;;5101128;28;20034;-61
2023/04/04 12:42:23;;;;;;;;;;;19.30;33.30;;;;;;5118266;28;19931;-62
2023/04/04 12:44:50;;;;;;;;;;;19.30;33.30;;;;;;5098013;28;19919;-61
2023/04/04 12:47:17;;;;;;;;;;;19.30;33.30;;;;;;5101641;28;19920;-61
2023/04/04 12:49:47;;;;;;;;;;;19.30;33.40;;;;;;5100846;28;19919;-62
2023/04/04 12:52:16;;;;;;;;;;;19.30;33.40;;;;;;5119463;28;19923;-61
2023/04/04 12:54:43;;;;;;;;;;;19.30;33.40;;;;;;5105846;28;19923;-62
2023/04/04 12:57:11;;;;;;;;;;;19.30;33.50;;;;;;5101021;28;19924;-62
2023/04/04 12:59:38;;;;;;;;;;;19.30;33.50;;;;;;5103001;28;19963;-61
2023/04/04 13:02:07;;;;;;;;;;;19.40;33.60;;;;;;5117281;28;20277;-62
2023/04/04 13:04:34;;;;;;;;;;;19.40;33.60;;;;;;5101259;28;19919;-60
2023/04/04 13:07:03;;;;;;;;;;;19.40;33.70;;;;;;5102772;28;19927;-61
2023/04/04 13:09:30;;;;;;;;;;;19.40;33.70;;;;;;5102675;27;20027;-62
2023/04/04 13:11:58;;;;;;;;;;;19.40;33.70;;;;;;5105673;27;19958;-60
2023/04/04 13:14:25;;;;;;;;;;;19.40;33.70;;;;;;5105292;27;19919;-61
2023/04/04 13:17:05;;;;;;;;;;;19.40;33.80;;;;;;5123042;27;19927;-61
2023/04/04 13:19:32;;;;;;;;;;;19.40;33.80;;;;;;5127810;27;19920;-62
2023/04/04 13:21:58;;;;;;;;;;;19.40;33.80;;;;;;5095728;28;19927;-59
2023/04/04 13:24:27;;;;;;;;;;;19.40;33.80;;;;;;5098860;28;19946;-62
2023/04/04 13:26:53;;;;;;;;;;;19.50;33.90;;;;;;5106491;27;19923;-61
2023/04/04 13:29:20;;;;;;;;;;;19.40;33.90;;;;;;5111026;28;19927;-62
2023/04/04 13:31:47;;;;;;;;;;;19.40;33.90;;;;;;5113247;28;19920;-62
2023/04/04 13:34:14;;;;;;;;;;;19.50;34.10;;;;;;5122303;27;19919;-60
2023/04/04 13:36:41;;;;;;;;;;;19.40;33.90;;;;;;5112390;27;19944;-60
2023/04/04 13:39:08;;;;;;;;;;;19.40;33.90;;;;;;5103153;27;19920;-60
2023/04/04 13:41:36;;;;;;;;;;;19.50;34.10;;;;;;5104933;27;19919;-60
2023/04/04 13:44:03;;;;;;;;;;;19.50;34.10;;;;;;5102705;27;19931;-60
2023/04/04 13:46:29;;;;;;;;;;;19.50;34.10;;;;;;5112678;27;19946;-62
2023/04/04 13:48:56;;;;;;;;;;;19.50;34.10;;;;;;5107891;27;19920;-61
2023/04/04 13:51:23;;;;;;;;;;;19.50;34.10;;;;;;5104715;27;19919;-61
2023/04/04 13:53:50;;;;;;;;;;;19.50;34.20;;;;;;5108752;27;19919;-61
2023/04/04 13:56:18;;;;;;;;;;;19.50;34.10;;;;;;5110773;27;19927;-65
2023/04/04 13:58:46;;;;;;;;;;;19.50;34.20;;;;;;5085179;27;19923;-63
2023/04/04 14:01:14;;;;;;;;;;;19.50;34.20;;;;;;5105124;27;19919;-62
2023/04/04 14:03:41;;;;;;;;;;;19.50;34.30;;;;;;5107513;27;19923;-62
2023/04/04 14:06:08;;;;;;;;;;;19.50;34.20;;;;;;5107718;27;19975;-62
2023/04/04 14:08:35;;;;;;;;;;;19.50;34.30;;;;;;5127674;27;19966;-62
2023/04/04 14:11:02;;;;;;;;;;;19.50;34.30;;;;;;5105142;27;19969;-61
2023/04/04 14:13:31;;;;;;;;;;;19.50;34.30;;;;;;5126743;27;19920;-62
2023/04/04 14:15:59;;;;;;;;;;;19.50;34.30;;;;;;5121432;27;19923;-61
2023/04/04 14:18:26;;;;;;;;;;;19.50;34.40;;;;;;5102569;27;20378;-63